createdAt,value
2022-08-28T00:00:40.894Z,22.13
2022-08-28T00:03:12.645Z,22.03
2022-08-28T00:05:44.799Z,21.90
2022-08-28T00:08:17.766Z,21.83
2022-08-28T00:10:48.314Z,21.82
2022-08-28T00:13:21.593Z,21.79
2022-08-28T00:15:59.179Z,21.73
2022-08-28T00:18:31.211Z,21.73
2022-08-28T00:21:01.803Z,21.69
2022-08-28T00:23:42.335Z,21.73
2022-08-28T00:26:33.577Z,21.71
2022-08-28T00:29:05.691Z,21.66
2022-08-28T00:31:41.111Z,21.63
2022-08-28T00:34:12.253Z,21.62
2022-08-28T00:36:42.589Z,21.56
2022-08-28T00:39:12.349Z,21.56
2022-08-28T00:41:42.972Z,21.48
2022-08-28T00:44:13.409Z,21.39
2022-08-28T00:46:47.876Z,21.27
2022-08-28T00:49:21.620Z,21.28
2022-08-28T00:52:14.272Z,21.20
2022-08-28T00:54:53.519Z,21.10
2022-08-28T00:57:53.894Z,21.00
2022-08-28T01:00:29.030Z,21.03
2022-08-28T01:02:59.506Z,20.97
2022-08-28T01:05:30.205Z,20.88
2022-08-28T01:08:00.868Z,20.77
2022-08-28T01:10:33.886Z,20.70
2022-08-28T01:13:04.420Z,20.62
2022-08-28T01:15:37.103Z,20.47
2022-08-28T01:18:12.558Z,20.43
2022-08-28T01:20:56.736Z,20.30
2022-08-28T01:23:34.285Z,20.15
2022-08-28T01:26:06.507Z,20.04
2022-08-28T01:28:42.766Z,20.01
2022-08-28T01:31:14.750Z,19.91
2022-08-28T01:33:46.436Z,19.88
2022-08-28T01:36:17.658Z,19.79
2022-08-28T01:38:54.365Z,19.73
2022-08-28T01:41:24.977Z,19.67
2022-08-28T01:43:55.432Z,19.60
2022-08-28T01:46:25.563Z,19.49
2022-08-28T01:48:55.295Z,19.45
2022-08-28T01:51:25.266Z,19.45
2022-08-28T01:53:56.318Z,19.43
2022-08-28T01:56:26.033Z,19.37
2022-08-28T01:58:56.140Z,19.37
2022-08-28T02:01:26.442Z,19.31
2022-08-28T02:03:56.828Z,19.31
2022-08-28T02:06:26.917Z,19.29
2022-08-28T02:08:56.730Z,19.20
2022-08-28T02:11:27.288Z,19.16
2022-08-28T02:13:58.721Z,19.20
2022-08-28T02:16:29.894Z,19.16
2022-08-28T02:19:00.552Z,19.06
2022-08-28T02:21:30.469Z,19.05
2022-08-28T02:24:00.268Z,19.06
2022-08-28T02:26:31.825Z,19.06
2022-08-28T02:29:02.596Z,18.98
2022-08-28T02:31:33.978Z,19.00
2022-08-28T02:34:04.384Z,19.03
2022-08-28T02:36:35.127Z,19.02
2022-08-28T02:39:05.429Z,19.00
2022-08-28T02:41:35.150Z,19.00
2022-08-28T02:44:06.799Z,19.08
2022-08-28T02:46:37.065Z,19.00
2022-08-28T02:49:06.867Z,18.94
2022-08-28T02:51:36.674Z,18.75
2022-08-28T02:54:06.476Z,18.33
2022-08-28T02:56:36.214Z,18.04
2022-08-28T02:59:05.991Z,17.75
2022-08-28T03:01:35.833Z,17.62
2022-08-28T03:04:06.565Z,17.53
2022-08-28T03:06:36.311Z,17.48
2022-08-28T03:09:06.968Z,17.41
2022-08-28T03:11:38.352Z,17.42
2022-08-28T03:14:08.660Z,17.39
2022-08-28T03:16:38.527Z,17.30
2022-08-28T03:19:08.596Z,17.31
2022-08-28T03:21:38.341Z,17.30
2022-08-28T03:24:08.630Z,17.25
2022-08-28T03:26:38.441Z,17.46
2022-08-28T03:29:08.247Z,17.41
2022-08-28T03:31:40.135Z,17.31
2022-08-28T03:34:10.801Z,17.20
2022-08-28T03:36:40.617Z,17.11
2022-08-28T03:39:11.267Z,17.24
2022-08-28T03:41:41.546Z,17.21
2022-08-28T03:44:12.633Z,17.17
2022-08-28T03:46:42.815Z,17.30
2022-08-28T03:49:12.541Z,17.41
2022-08-28T03:51:42.638Z,17.28
2022-08-28T03:54:12.868Z,17.17
2022-08-28T03:56:43.431Z,17.21
2022-08-28T03:59:13.297Z,17.24
2022-08-28T04:01:43.405Z,17.30
2022-08-28T04:04:13.402Z,17.21
2022-08-28T04:06:43.703Z,17.24
2022-08-28T04:09:13.428Z,17.20
2022-08-28T04:11:44.116Z,17.20
2022-08-28T04:14:14.589Z,17.24
2022-08-28T04:16:44.492Z,17.34
2022-08-28T04:19:14.231Z,17.34
2022-08-28T04:21:43.968Z,17.23
2022-08-28T04:24:14.455Z,17.08
2022-08-28T04:26:45.989Z,16.83
2022-08-28T04:29:17.437Z,16.35
2022-08-28T04:31:47.767Z,16.09
2022-08-28T04:34:17.538Z,15.93
2022-08-28T04:36:47.884Z,15.76
2022-08-28T04:39:18.041Z,15.66
2022-08-28T04:41:48.305Z,15.66
2022-08-28T04:44:19.272Z,15.40
2022-08-28T04:46:49.399Z,15.37
2022-08-28T04:49:18.830Z,15.35
2022-08-28T04:51:48.576Z,15.46
2022-08-28T04:54:18.615Z,15.43
2022-08-28T04:56:48.596Z,15.33
2022-08-28T04:59:18.677Z,15.36
2022-08-28T05:01:49.477Z,15.44
2022-08-28T05:04:20.836Z,15.29
2022-08-28T05:06:51.207Z,15.30
2022-08-28T05:09:22.457Z,15.20
2022-08-28T05:11:54.289Z,15.13
2022-08-28T05:14:24.301Z,15.15
2022-08-28T05:16:54.227Z,15.06
2022-08-28T05:19:25.568Z,15.02
2022-08-28T05:21:56.433Z,15.06
2022-08-28T05:24:26.475Z,15.19
2022-08-28T05:26:56.246Z,15.25
2022-08-28T05:29:27.733Z,15.32
2022-08-28T05:31:57.033Z,15.20
2022-08-28T05:34:26.770Z,15.26
2022-08-28T05:36:56.723Z,15.26
2022-08-28T05:39:26.427Z,15.30
2022-08-28T05:41:55.714Z,15.33
2022-08-28T05:44:25.429Z,15.36
2022-08-28T05:46:55.135Z,15.33
2022-08-28T05:49:24.760Z,15.26
2022-08-28T05:51:54.626Z,15.23
2022-08-28T05:54:24.466Z,15.26
2022-08-28T05:56:54.218Z,15.29
2022-08-28T05:59:23.481Z,15.27
2022-08-28T06:01:53.192Z,15.25
2022-08-28T06:04:28.269Z,15.29
2022-08-28T06:06:59.052Z,15.18
2022-08-28T06:09:30.420Z,15.09
2022-08-28T06:12:03.883Z,14.84
2022-08-28T06:14:34.568Z,14.56
2022-08-28T06:17:05.018Z,13.93
2022-08-28T06:19:41.112Z,13.48
2022-08-28T06:22:13.463Z,13.28
2022-08-28T06:24:43.542Z,13.00
2022-08-28T06:27:13.287Z,12.73
2022-08-28T06:29:42.734Z,12.53
2022-08-28T06:32:12.675Z,12.38
2022-08-28T06:34:42.645Z,12.29
2022-08-28T06:37:12.446Z,12.26
2022-08-28T06:39:41.749Z,12.28
2022-08-28T06:42:11.723Z,12.28
2022-08-28T06:44:41.790Z,12.24
2022-08-28T06:47:12.658Z,12.26
2022-08-28T06:49:42.626Z,12.22
2022-08-28T06:52:12.349Z,12.11
2022-08-28T06:54:50.430Z,12.04
2022-08-28T06:57:27.234Z,12.05
2022-08-28T06:59:58.675Z,12.01
2022-08-28T07:02:28.849Z,11.95
2022-08-28T07:04:58.683Z,11.88
2022-08-28T07:07:32.553Z,11.81
2022-08-28T07:10:03.834Z,11.83
2022-08-28T07:12:33.900Z,11.80
2022-08-28T07:15:05.437Z,11.77
2022-08-28T07:17:35.476Z,11.81
2022-08-28T07:20:07.767Z,11.80
2022-08-28T07:22:37.808Z,11.80
2022-08-28T07:25:08.717Z,11.70
2022-08-28T07:27:39.526Z,11.63
2022-08-28T07:30:11.240Z,11.69
2022-08-28T07:32:41.207Z,11.60
2022-08-28T07:35:11.537Z,11.56
2022-08-28T07:37:41.260Z,11.54
2022-08-28T07:40:12.894Z,11.44
2022-08-28T07:43:01.277Z,11.43
2022-08-28T07:45:31.495Z,11.39
2022-08-28T07:48:01.364Z,11.40
2022-08-28T07:50:30.621Z,11.44
2022-08-28T07:53:00.274Z,11.37
2022-08-28T07:55:33.048Z,11.29
2022-08-28T07:58:03.458Z,11.29
2022-08-28T08:00:33.495Z,11.30
2022-08-28T08:03:03.360Z,11.20
2022-08-28T08:05:32.680Z,11.23
2022-08-28T08:08:02.951Z,11.15
2022-08-28T08:10:34.307Z,11.14
2022-08-28T08:13:04.836Z,11.08
2022-08-28T08:15:37.414Z,11.08
2022-08-28T08:18:07.222Z,11.09
2022-08-28T08:20:36.931Z,11.15
2022-08-28T08:23:07.538Z,11.15
2022-08-28T08:25:37.281Z,11.18
2022-08-28T08:28:07.272Z,11.12
2022-08-28T08:30:37.635Z,11.06
2022-08-28T08:33:07.657Z,11.11
2022-08-28T08:35:37.669Z,11.11
2022-08-28T08:38:11.473Z,11.08
2022-08-28T08:40:41.849Z,11.14
2022-08-28T08:43:11.400Z,11.11
2022-08-28T08:45:44.384Z,11.11
2022-08-28T08:48:30.556Z,11.18
2022-08-28T08:51:05.718Z,11.15
2022-08-28T08:53:46.467Z,11.19
2022-08-28T08:56:18.269Z,11.19
2022-08-28T08:58:53.414Z,11.09
2022-08-28T09:01:31.194Z,11.09
2022-08-28T09:04:29.375Z,11.09
2022-08-28T09:07:07.482Z,11.11
2022-08-28T09:09:42.835Z,11.06
2022-08-28T09:12:24.800Z,11.02
2022-08-28T09:15:22.128Z,11.06
2022-08-28T09:17:56.321Z,11.04
2022-08-28T09:20:32.607Z,11.08
2022-08-28T09:23:12.530Z,10.92
2022-08-28T09:25:46.342Z,10.91
2022-08-28T09:28:22.427Z,10.84
2022-08-28T09:31:14.654Z,10.74
2022-08-28T09:33:53.888Z,10.71
2022-08-28T09:36:38.926Z,10.74
2022-08-28T09:39:13.966Z,10.63
2022-08-28T09:42:19.755Z,10.53
2022-08-28T09:45:14.826Z,10.50
2022-08-28T09:47:51.808Z,10.48
2022-08-28T09:50:34.841Z,10.46
2022-08-28T09:53:11.104Z,10.44
2022-08-28T09:55:59.356Z,10.46
2022-08-28T09:58:42.915Z,10.43
2022-08-28T10:01:15.702Z,10.36
2022-08-28T10:03:53.135Z,10.37
2022-08-28T10:06:27.976Z,10.34
2022-08-28T10:09:22.126Z,10.32
2022-08-28T10:12:16.968Z,10.24
2022-08-28T10:15:07.156Z,10.19
2022-08-28T10:17:45.825Z,10.30
2022-08-28T10:20:47.428Z,10.41
2022-08-28T10:23:50.929Z,10.17
2022-08-28T10:26:41.341Z,10.23
2022-08-28T10:29:29.464Z,10.29
2022-08-28T10:32:32.997Z,10.30
2022-08-28T10:35:33.624Z,10.32
2022-08-28T10:38:06.393Z,10.36
2022-08-28T10:40:52.778Z,10.41
2022-08-28T10:43:39.446Z,10.26
2022-08-28T10:46:25.277Z,10.33
2022-08-28T10:49:11.996Z,10.27
2022-08-28T10:51:49.384Z,10.30
2022-08-28T10:54:31.555Z,10.30
2022-08-28T10:57:10.499Z,10.32
2022-08-28T10:59:43.363Z,10.27
2022-08-28T11:02:17.597Z,10.44
2022-08-28T11:04:49.103Z,10.27
2022-08-28T11:07:37.780Z,10.23
2022-08-28T11:10:42.075Z,10.14
2022-08-28T11:13:12.688Z,10.14
2022-08-28T11:15:47.761Z,10.24
2022-08-28T11:18:17.628Z,10.29
2022-08-28T11:21:11.310Z,10.38
2022-08-28T11:23:55.149Z,10.51
2022-08-28T11:26:48.031Z,10.67
2022-08-28T11:30:06.573Z,10.92
2022-08-28T11:32:36.439Z,10.98
2022-08-28T11:35:14.504Z,10.99
2022-08-28T11:37:47.480Z,11.06
2022-08-28T11:40:41.905Z,11.19
2022-08-28T11:43:17.546Z,11.30
2022-08-28T11:45:47.780Z,11.37
2022-08-28T11:48:41.498Z,11.50
2022-08-28T11:51:28.488Z,11.52
2022-08-28T11:54:32.225Z,11.56
2022-08-28T11:57:23.479Z,11.50
2022-08-28T12:00:09.613Z,11.54
2022-08-28T12:02:44.272Z,11.59
2022-08-28T12:05:17.321Z,11.67
2022-08-28T12:07:50.311Z,11.62
2022-08-28T12:10:28.388Z,11.56
2022-08-28T12:13:00.864Z,11.44
2022-08-28T12:15:34.575Z,11.54
2022-08-28T12:18:14.890Z,11.57
2022-08-28T12:20:56.779Z,11.66
2022-08-28T12:23:32.797Z,11.67
2022-08-28T12:26:17.744Z,11.64
2022-08-28T12:28:52.781Z,11.75
2022-08-28T12:32:07.959Z,11.85
2022-08-28T12:34:43.881Z,11.94
2022-08-28T12:37:39.614Z,12.10
2022-08-28T12:40:48.524Z,12.25
2022-08-28T12:43:46.794Z,12.34
2022-08-28T12:46:29.998Z,12.34
2022-08-28T12:49:03.103Z,12.42
2022-08-28T12:51:36.438Z,12.52
2022-08-28T12:54:10.326Z,12.59
2022-08-28T12:56:40.723Z,12.53
2022-08-28T12:59:27.061Z,12.31
2022-08-28T13:02:07.951Z,12.18
2022-08-28T13:04:57.744Z,12.13
2022-08-28T13:07:46.861Z,12.14
2022-08-28T13:10:20.214Z,12.14
2022-08-28T13:13:01.975Z,12.04
2022-08-28T13:15:55.555Z,12.10
2022-08-28T13:18:56.443Z,12.22
2022-08-28T13:21:34.841Z,12.28
2022-08-28T13:24:24.004Z,12.29
2022-08-28T13:27:18.219Z,12.42
2022-08-28T13:30:00.880Z,12.57
2022-08-28T13:32:35.712Z,12.66
2022-08-28T13:35:14.062Z,12.87
2022-08-28T13:37:49.113Z,12.90
2022-08-28T13:40:56.896Z,13.00
2022-08-28T13:43:17.944Z,13.08
2022-08-28T13:45:50.136Z,13.07
2022-08-28T13:48:26.640Z,13.01
2022-08-28T13:51:10.845Z,13.08
2022-08-28T13:53:42.364Z,12.86
2022-08-28T13:56:12.240Z,12.62
2022-08-28T13:58:42.873Z,12.55
2022-08-28T14:01:13.616Z,12.42
2022-08-28T14:03:45.805Z,12.41
2022-08-28T14:06:19.460Z,12.46
2022-08-28T14:08:52.729Z,12.38
2022-08-28T14:11:23.001Z,12.73
2022-08-28T14:13:55.884Z,12.77
2022-08-28T14:16:27.136Z,12.69
2022-08-28T14:18:57.334Z,12.84
2022-08-28T14:21:26.616Z,12.66
2022-08-28T14:23:56.321Z,12.56
2022-08-28T14:26:25.555Z,13.30
2022-08-28T14:28:55.254Z,12.87
2022-08-28T14:31:26.209Z,12.92
2022-08-28T14:34:00.107Z,12.62
2022-08-28T14:36:32.897Z,12.94
2022-08-28T14:39:06.408Z,13.14
2022-08-28T14:41:37.334Z,13.24
2022-08-28T14:44:07.830Z,13.37
2022-08-28T14:46:38.670Z,13.80
2022-08-28T14:49:14.392Z,13.69
2022-08-28T14:51:46.277Z,13.32
2022-08-28T14:54:18.992Z,13.13
2022-08-28T14:56:50.245Z,13.00
2022-08-28T14:59:24.412Z,12.84
2022-08-28T15:01:56.407Z,12.64
2022-08-28T15:04:28.175Z,12.60
2022-08-28T15:07:00.533Z,12.52
2022-08-28T15:09:30.957Z,12.48
2022-08-28T15:12:00.689Z,12.50
2022-08-28T15:14:29.947Z,12.55
2022-08-28T15:17:00.614Z,12.43
2022-08-28T15:19:31.163Z,12.35
2022-08-28T15:22:02.729Z,12.25
2022-08-28T15:24:35.712Z,12.21
2022-08-28T15:27:06.400Z,12.14
2022-08-28T15:29:36.100Z,12.14
2022-08-28T15:32:06.008Z,12.11
2022-08-28T15:34:35.765Z,12.08
2022-08-28T15:37:07.807Z,12.10
2022-08-28T15:39:56.021Z,12.05
2022-08-28T15:42:28.203Z,12.22
2022-08-28T15:45:00.052Z,12.39
2022-08-28T15:47:29.379Z,12.56
2022-08-28T15:49:59.415Z,12.64
2022-08-28T15:52:29.287Z,12.50
2022-08-28T15:54:59.254Z,12.38
2022-08-28T15:57:30.253Z,12.49
2022-08-28T16:00:01.077Z,12.49
2022-08-28T16:02:31.580Z,12.42
2022-08-28T16:05:01.473Z,12.32
2022-08-28T16:07:31.445Z,12.17
2022-08-28T16:10:01.277Z,12.14
2022-08-28T16:12:30.583Z,12.15
2022-08-28T16:15:00.739Z,12.08
2022-08-28T16:17:30.544Z,12.08
2022-08-28T16:19:59.825Z,12.10
2022-08-28T16:22:29.787Z,12.04
2022-08-28T16:24:59.515Z,12.01
2022-08-28T16:27:29.336Z,11.93
2022-08-28T16:29:59.667Z,11.91
2022-08-28T16:32:29.381Z,11.99
2022-08-28T16:34:58.668Z,12.01
2022-08-28T16:37:37.711Z,12.04
2022-08-28T16:40:11.188Z,12.11
2022-08-28T16:42:41.206Z,12.04
2022-08-28T16:45:13.006Z,12.01
2022-08-28T16:47:43.010Z,11.90
2022-08-28T16:50:14.374Z,11.88
2022-08-28T16:52:44.238Z,11.85
2022-08-28T16:55:13.703Z,11.95
2022-08-28T16:57:44.015Z,11.94
2022-08-28T17:00:15.044Z,12.06
2022-08-28T17:02:45.587Z,12.06
2022-08-28T17:05:17.562Z,12.21
2022-08-28T17:07:49.375Z,12.21
2022-08-28T17:10:23.682Z,12.13
2022-08-28T17:12:55.436Z,12.24
2022-08-28T17:15:25.344Z,12.34
2022-08-28T17:17:55.208Z,12.29
2022-08-28T17:20:43.799Z,12.31
2022-08-28T17:23:13.963Z,12.24
2022-08-28T17:25:43.408Z,12.36
2022-08-28T17:28:13.158Z,12.38
2022-08-28T17:30:43.154Z,12.22
2022-08-28T17:33:12.917Z,12.21
2022-08-28T17:35:42.454Z,12.42
2022-08-28T17:38:13.991Z,12.36
2022-08-28T17:40:44.332Z,12.36
2022-08-28T17:43:14.453Z,12.22
2022-08-28T17:45:44.286Z,12.26
2022-08-28T17:48:14.229Z,12.22
2022-08-28T17:50:44.469Z,12.26
2022-08-28T17:53:14.613Z,12.35
2022-08-28T17:55:44.365Z,12.34
2022-08-28T17:58:13.790Z,12.36
2022-08-28T18:00:45.356Z,12.35
2022-08-28T18:03:16.764Z,12.31
2022-08-28T18:05:47.357Z,12.34
2022-08-28T18:08:17.114Z,12.31
2022-08-28T18:10:47.306Z,12.43
2022-08-28T18:13:17.809Z,12.35
2022-08-28T18:15:54.447Z,12.21
2022-08-28T18:18:36.433Z,12.10
2022-08-28T18:21:06.896Z,12.06
2022-08-28T18:23:36.797Z,11.99
2022-08-28T18:26:07.450Z,12.01
2022-08-28T18:28:38.808Z,12.05
2022-08-28T18:31:09.407Z,12.10
2022-08-28T18:33:41.917Z,11.95
2022-08-28T18:36:14.667Z,11.91
2022-08-28T18:38:45.853Z,11.93
2022-08-28T18:41:15.638Z,11.93
2022-08-28T18:43:44.922Z,11.91
2022-08-28T18:46:15.512Z,11.84
2022-08-28T18:48:45.295Z,11.73
2022-08-28T18:51:14.619Z,11.74
2022-08-28T18:53:51.746Z,11.73
2022-08-28T18:56:21.630Z,11.70
2022-08-28T18:58:52.510Z,11.75
2022-08-28T19:01:23.223Z,11.84
2022-08-28T19:03:53.087Z,11.80
2022-08-28T19:06:23.315Z,11.70
2022-08-28T19:08:53.121Z,11.64
2022-08-28T19:11:22.658Z,11.69
2022-08-28T19:13:52.286Z,11.62
2022-08-28T19:16:21.928Z,11.66
2022-08-28T19:18:53.078Z,11.66
2022-08-28T19:21:23.412Z,11.69
2022-08-28T19:23:55.619Z,11.75
2022-08-28T19:26:27.810Z,11.80
2022-08-28T19:28:58.132Z,11.77
2022-08-28T19:31:29.152Z,11.75
2022-08-28T19:33:59.312Z,11.75
2022-08-28T19:36:30.690Z,11.75
2022-08-28T19:39:00.776Z,11.74
2022-08-28T19:41:30.829Z,11.74
2022-08-28T19:44:01.227Z,11.81
2022-08-28T19:46:31.378Z,11.73
2022-08-28T19:49:04.249Z,11.66
2022-08-28T19:51:35.783Z,11.60
2022-08-28T19:54:06.269Z,11.59
2022-08-28T19:56:36.237Z,11.57
2022-08-28T19:59:08.552Z,11.59
2022-08-28T20:01:42.688Z,11.54
2022-08-28T20:04:18.344Z,11.50
2022-08-28T20:06:48.597Z,11.50
2022-08-28T20:09:18.601Z,11.52
2022-08-28T20:11:48.493Z,11.44
2022-08-28T20:14:19.856Z,11.50
2022-08-28T20:16:52.189Z,11.52
2022-08-28T20:19:23.793Z,11.44
2022-08-28T20:21:54.044Z,11.35
2022-08-28T20:24:25.252Z,11.18
2022-08-28T20:26:55.612Z,11.08
2022-08-28T20:29:25.732Z,11.04
2022-08-28T20:31:55.690Z,11.01
2022-08-28T20:34:25.807Z,10.94
2022-08-28T20:36:55.591Z,10.82
2022-08-28T20:39:24.850Z,10.82
2022-08-28T20:41:55.619Z,10.77
2022-08-28T20:44:26.046Z,10.71
2022-08-28T20:46:55.788Z,10.61
2022-08-28T20:49:28.728Z,10.57
2022-08-28T20:51:59.967Z,10.58
2022-08-28T20:54:40.081Z,10.48
2022-08-28T20:57:16.904Z,10.46
2022-08-28T20:59:48.618Z,10.36
2022-08-28T21:02:22.789Z,10.26
2022-08-28T21:04:53.895Z,10.17
2022-08-28T21:07:25.756Z,10.12
2022-08-28T21:10:04.056Z,10.00
2022-08-28T21:12:41.253Z,9.96
2022-08-28T21:15:13.709Z,9.89
2022-08-28T21:17:43.841Z,9.78
2022-08-28T21:20:16.388Z,9.77
2022-08-28T21:22:47.536Z,9.75
2022-08-28T21:25:17.329Z,9.72
2022-08-28T21:27:47.330Z,9.68
2022-08-28T21:30:19.341Z,9.71
2022-08-28T21:32:53.287Z,9.69
2022-08-28T21:35:24.139Z,9.68
2022-08-28T21:37:54.312Z,9.67
2022-08-28T21:40:24.571Z,9.69
2022-08-28T21:42:54.314Z,9.75
2022-08-28T21:45:24.545Z,9.69
2022-08-28T21:47:54.321Z,9.65
2022-08-28T21:50:24.272Z,9.58
2022-08-28T21:52:54.010Z,9.59
2022-08-28T21:55:24.336Z,9.57
2022-08-28T21:57:54.417Z,9.61
2022-08-28T22:00:25.253Z,9.57
2022-08-28T22:02:55.426Z,9.40
2022-08-28T22:05:25.320Z,9.23
2022-08-28T22:07:54.635Z,9.17
2022-08-28T22:10:24.940Z,9.20
2022-08-28T22:12:54.701Z,9.17
2022-08-28T22:15:25.019Z,9.13
2022-08-28T22:17:55.976Z,9.10
2022-08-28T22:20:25.927Z,9.07
2022-08-28T22:23:11.203Z,9.09
2022-08-28T22:25:45.210Z,9.03
2022-08-28T22:28:15.760Z,8.96
2022-08-28T22:30:45.926Z,8.89
2022-08-28T22:33:16.561Z,8.89
2022-08-28T22:35:46.537Z,8.86
2022-08-28T22:38:16.431Z,8.72
2022-08-28T22:40:45.822Z,8.69
2022-08-28T22:43:16.509Z,8.61
2022-08-28T22:45:47.705Z,8.61
2022-08-28T22:48:19.298Z,8.79
2022-08-28T22:50:49.929Z,8.82
2022-08-28T22:53:20.103Z,8.69
2022-08-28T22:55:49.810Z,8.61
2022-08-28T22:58:19.524Z,8.52
2022-08-28T23:00:49.432Z,8.56
2022-08-28T23:03:18.760Z,8.87
2022-08-28T23:05:48.533Z,8.82
2022-08-28T23:08:18.709Z,8.76
2022-08-28T23:10:58.904Z,8.76
2022-08-28T23:13:32.132Z,8.96
2022-08-28T23:16:03.838Z,8.86
2022-08-28T23:18:51.942Z,8.86
2022-08-28T23:21:26.390Z,8.75
2022-08-28T23:23:57.555Z,8.66
2022-08-28T23:26:27.870Z,8.52
2022-08-28T23:28:58.155Z,8.56
2022-08-28T23:31:27.959Z,8.44
2022-08-28T23:33:57.699Z,8.59
2022-08-28T23:36:28.702Z,8.55
2022-08-28T23:38:58.997Z,8.49
2022-08-28T23:41:29.538Z,8.46
2022-08-28T23:44:01.608Z,8.44
2022-08-28T23:46:33.325Z,8.44
2022-08-28T23:49:02.592Z,8.37
2022-08-28T23:51:32.312Z,8.42
2022-08-28T23:54:02.099Z,8.44
2022-08-28T23:56:32.085Z,8.28
2022-08-28T23:59:02.143Z,8.22
